Time;durP1;ratioP1;P1;durP2;ratioP2;P2;SDS_P1;SDS_P2;PMS_P1;PMS_P2;Temp;Humidity;BMP_temperature;BMP_pressure;BME280_temperature;BME280_humidity;BME280_pressure;Samples;Min_cycle;Max_cycle;Signal;HPM_P1;HPM_P2
2022/10/12 00:02:20;;;;;;;26.33;18.45;;;;;;;;;;5076359;28;20249;-42
2022/10/12 00:04:46;;;;;;;32.75;21.27;;;;;;;;;;5076050;28;20020;-43
2022/10/12 00:07:11;;;;;;;35.23;20.73;;;;;;;;;;5076136;28;20039;-39
2022/10/12 00:09:36;;;;;;;34.17;20.13;;;;;;;;;;5076147;28;20789;-39
2022/10/12 00:12:01;;;;;;;28.88;19.70;;;;;;;;;;5076249;28;20695;-42
2022/10/12 00:14:27;;;;;;;33.17;21.00;;;;;;;;;;5075984;28;20024;-40
2022/10/12 00:16:52;;;;;;;38.77;20.60;;;;;;;;;;5075965;28;20487;-41
2022/10/12 00:19:17;;;;;;;27.67;19.83;;;;;;;;;;5075737;28;20285;-42
2022/10/12 00:21:42;;;;;;;34.43;20.47;;;;;;;;;;5075668;28;20070;-40
2022/10/12 00:24:08;;;;;;;30.83;20.47;;;;;;;;;;5076210;28;20375;-42
2022/10/12 00:26:33;;;;;;;27.40;19.05;;;;;;;;;;5075895;28;20245;-42
2022/10/12 00:28:59;;;;;;;35.42;20.42;;;;;;;;;;5076059;28;20479;-41
2022/10/12 00:31:25;;;;;;;30.90;20.67;;;;;;;;;;5075928;28;20035;-41
2022/10/12 00:33:50;;;;;;;33.92;21.90;;;;;;;;;;5075539;28;20025;-41
2022/10/12 00:36:18;;;;;;;44.45;20.90;;;;;;;;;;5075478;28;20017;-39
2022/10/12 00:38:44;;;;;;;33.35;21.25;;;;;;;;;;5075511;28;20032;-41
2022/10/12 00:41:09;;;;;;;29.17;20.02;;;;;;;;;;5075380;28;20095;-40
2022/10/12 00:43:38;;;;;;;28.65;19.00;;;;;;;;;;5075435;28;20044;-43
2022/10/12 00:46:23;;;;;;;29.63;19.85;;;;;;;;;;5075916;28;20024;-42
2022/10/12 00:48:58;;;;;;;34.47;20.55;;;;;;;;;;5057505;28;20123;-41
2022/10/12 00:51:24;;;;;;;30.38;19.30;;;;;;;;;;5075350;28;20487;-41
2022/10/12 00:53:53;;;;;;;36.70;21.00;;;;;;;;;;5075048;28;20057;-41
2022/10/12 00:56:18;;;;;;;;;;;;;;;;;;5075762;28;20021;-40
2022/10/12 00:58:45;;;;;;;32.83;20.38;;;;;;;;;;5074997;28;19919;-40
2022/10/12 01:01:10;;;;;;;32.55;21.77;;;;;;;;;;5075054;28;20029;-44
2022/10/12 01:03:36;;;;;;;28.27;18.73;;;;;;;;;;5075069;28;20149;-39
2022/10/12 01:06:02;;;;;;;33.88;20.48;;;;;;;;;;5075147;28;20029;-43
2022/10/12 01:08:28;;;;;;;39.63;21.15;;;;;;;;;;5075183;28;20028;-42
2022/10/12 01:10:54;;;;;;;33.35;19.92;;;;;;;;;;5075020;28;20020;-38
2022/10/12 01:13:19;;;;;;;34.22;20.02;;;;;;;;;;5074847;28;20419;-41
2022/10/12 01:15:52;;;;;;;32.53;21.08;;;;;;;;;;5074796;28;20021;-42
2022/10/12 01:18:20;;;;;;;30.85;19.23;;;;;;;;;;5074679;28;20032;-41
2022/10/12 01:20:56;;;;;;;30.52;18.85;;;;;;;;;;5074866;28;20435;-42
2022/10/12 01:23:41;;;;;;;31.48;19.67;;;;;;;;;;5074754;28;20020;-40
2022/10/12 01:26:22;;;;;;;32.13;18.85;;;;;;;;;;5074592;28;20128;-42
2022/10/12 01:28:53;;;;;;;32.22;19.38;;;;;;;;;;5074884;28;20047;-37
2022/10/12 01:31:23;;;;;;;31.40;18.77;;;;;;;;;;5074811;28;20021;-42
2022/10/12 01:34:15;;;;;;;29.05;19.60;;;;;;;;;;5074540;28;20016;-42
2022/10/12 01:36:51;;;;;;;39.13;20.67;;;;;;;;;;5069804;28;20044;-41
2022/10/12 01:39:22;;;;;;;29.30;20.10;;;;;;;;;;5074363;28;20517;-42
2022/10/12 01:41:59;;;;;;;30.95;19.20;;;;;;;;;;5074508;28;20020;-41
2022/10/12 01:44:25;;;;;;;37.88;20.35;;;;;;;;;;5074184;28;20452;-41
2022/10/12 01:46:51;;;;;;;32.15;22.17;;;;;;;;;;5074339;28;20027;-42
2022/10/12 01:49:17;;;;;;;27.77;19.70;;;;;;;;;;5074108;28;20024;-43
2022/10/12 01:51:52;;;;;;;30.17;19.98;;;;;;;;;;5073539;28;20016;-42
2022/10/12 01:54:20;;;;;;;30.58;19.20;;;;;;;;;;5074134;28;20127;-41
2022/10/12 01:56:45;;;;;;;32.75;19.85;;;;;;;;;;5074011;28;20353;-41
2022/10/12 01:59:26;;;;;;;32.30;20.80;;;;;;;;;;5073901;28;20037;-42
2022/10/12 02:01:55;;;;;;;48.00;20.33;;;;;;;;;;5073837;28;20270;-40
2022/10/12 02:04:23;;;;;;;33.47;20.30;;;;;;;;;;5074125;28;20035;-39
2022/10/12 02:06:51;;;;;;;32.97;21.02;;;;;;;;;;5074042;28;20120;-43
2022/10/12 02:09:20;;;;;;;31.45;20.85;;;;;;;;;;5073777;28;20025;-42
2022/10/12 02:11:47;;;;;;;34.67;19.55;;;;;;;;;;5073969;28;20047;-42
2022/10/12 02:14:16;;;;;;;34.70;20.30;;;;;;;;;;5073786;28;20031;-39
2022/10/12 02:16:41;;;;;;;;;;;;;;;;;;5073924;28;20023;-42
2022/10/12 02:19:09;;;;;;;30.30;19.03;;;;;;;;;;5073616;28;19916;-43
2022/10/12 02:21:35;;;;;;;34.70;21.52;;;;;;;;;;5073861;28;20256;-37
2022/10/12 02:24:03;;;;;;;34.25;20.55;;;;;;;;;;5073466;28;20025;-42
2022/10/12 02:26:29;;;;;;;31.75;19.83;;;;;;;;;;5073446;28;20059;-42
2022/10/12 02:28:54;;;;;;;35.53;20.73;;;;;;;;;;5073427;28;20048;-42
2022/10/12 02:31:41;;;;;;;35.70;20.73;;;;;;;;;;5073258;28;20021;-39
2022/10/12 02:34:11;;;;;;;35.13;20.90;;;;;;;;;;5073342;28;20028;-39
2022/10/12 02:36:42;;;;;;;36.50;21.92;;;;;;;;;;5073147;28;20111;-37
2022/10/12 02:39:18;;;;;;;32.58;22.10;;;;;;;;;;5073274;28;20041;-42
2022/10/12 02:41:49;;;;;;;38.15;20.98;;;;;;;;;;5072898;28;20357;-41
2022/10/12 02:44:16;;;;;;;33.85;21.73;;;;;;;;;;5073241;28;20497;-41
2022/10/12 02:46:42;;;;;;;32.95;21.20;;;;;;;;;;5073225;28;20040;-41
2022/10/12 02:49:07;;;;;;;40.92;21.58;;;;;;;;;;5073153;28;20448;-40
2022/10/12 02:51:33;;;;;;;34.60;21.77;;;;;;;;;;5073073;28;20102;-40
2022/10/12 02:53:58;;;;;;;31.80;20.95;;;;;;;;;;5073233;28;20041;-41
2022/10/12 02:56:24;;;;;;;34.38;21.85;;;;;;;;;;5073123;28;20062;-42
2022/10/12 02:58:49;;;;;;;41.53;22.77;;;;;;;;;;5072949;28;20414;-41
2022/10/12 03:01:17;;;;;;;42.22;22.70;;;;;;;;;;5072925;28;20241;-39
2022/10/12 03:03:43;;;;;;;40.80;22.80;;;;;;;;;;5073049;28;20029;-41
2022/10/12 03:06:08;;;;;;;38.05;24.13;;;;;;;;;;5072942;28;20021;-40
2022/10/12 03:08:34;;;;;;;36.95;22.02;;;;;;;;;;5073042;28;20391;-41
2022/10/12 03:11:11;;;;;;;38.58;20.73;;;;;;;;;;5072844;28;20036;-42
2022/10/12 03:13:36;;;;;;;34.97;23.10;;;;;;;;;;5054841;28;20028;-41
2022/10/12 03:16:05;;;;;;;32.78;21.70;;;;;;;;;;5073129;28;20021;-40
2022/10/12 03:18:31;;;;;;;31.30;20.73;;;;;;;;;;5072741;28;20452;-40
2022/10/12 03:20:56;;;;;;;41.00;21.20;;;;;;;;;;5072992;28;20070;-39
2022/10/12 03:23:21;;;;;;;37.08;22.70;;;;;;;;;;5072544;28;20028;-42
2022/10/12 03:25:46;;;;;;;36.27;23.53;;;;;;;;;;5072823;28;20020;-43
2022/10/12 03:28:12;;;;;;;33.67;20.80;;;;;;;;;;5072932;28;20317;-39
2022/10/12 03:30:37;;;;;;;42.60;23.47;;;;;;;;;;5072800;28;20012;-42
2022/10/12 03:33:02;;;;;;;49.53;22.67;;;;;;;;;;5072699;28;20245;-37
2022/10/12 03:35:28;;;;;;;47.63;25.13;;;;;;;;;;5072620;28;20273;-41
2022/10/12 03:37:53;;;;;;;40.70;24.55;;;;;;;;;;5072397;28;20064;-43
2022/10/12 03:40:18;;;;;;;47.50;24.50;;;;;;;;;;5072315;28;20444;-40
2022/10/12 03:42:43;;;;;;;37.00;21.40;;;;;;;;;;5072717;28;20086;-41
2022/10/12 03:45:09;;;;;;;45.13;23.45;;;;;;;;;;5072181;28;20257;-43
2022/10/12 03:47:34;;;;;;;39.78;23.50;;;;;;;;;;5072694;28;20095;-43
2022/10/12 03:49:59;;;;;;;41.28;23.75;;;;;;;;;;5072333;28;20024;-40
2022/10/12 03:52:24;;;;;;;39.33;23.90;;;;;;;;;;5072419;28;20017;-42
2022/10/12 03:54:50;;;;;;;38.63;24.10;;;;;;;;;;5071823;28;20274;-41
2022/10/12 03:57:15;;;;;;;42.83;24.00;;;;;;;;;;5072232;28;20036;-40
2022/10/12 03:59:40;;;;;;;43.60;23.00;;;;;;;;;;5072273;28;20509;-43
2022/10/12 04:02:05;;;;;;;43.83;24.60;;;;;;;;;;5072377;28;20584;-42
2022/10/12 04:04:31;;;;;;;38.07;24.30;;;;;;;;;;5072299;28;20649;-41
2022/10/12 04:06:56;;;;;;;38.25;22.58;;;;;;;;;;5072285;28;20249;-42
2022/10/12 04:09:21;;;;;;;41.50;24.65;;;;;;;;;;5072098;28;20122;-37
2022/10/12 04:11:46;;;;;;;34.38;21.70;;;;;;;;;;5072143;28;20384;-42
2022/10/12 04:14:12;;;;;;;42.67;24.27;;;;;;;;;;5072101;28;20106;-43
2022/10/12 04:16:37;;;;;;;34.97;22.37;;;;;;;;;;5075091;28;20234;-42
2022/10/12 04:19:02;;;;;;;36.40;21.58;;;;;;;;;;5075706;28;20273;-40
2022/10/12 04:21:29;;;;;;;45.00;26.50;;;;;;;;;;5075643;28;20027;-39
2022/10/12 04:23:54;;;;;;;36.83;24.75;;;;;;;;;;5075733;28;20253;-40
2022/10/12 04:26:20;;;;;;;41.97;24.20;;;;;;;;;;5075477;28;20017;-37
2022/10/12 04:28:45;;;;;;;43.53;24.77;;;;;;;;;;5075962;28;20245;-40
2022/10/12 04:31:10;;;;;;;41.80;24.80;;;;;;;;;;5075698;28;20328;-42
2022/10/12 04:33:35;;;;;;;38.60;25.40;;;;;;;;;;5075632;28;20282;-39
2022/10/12 04:36:01;;;;;;;45.43;26.53;;;;;;;;;;5075523;28;20117;-40
2022/10/12 04:38:26;;;;;;;42.08;25.25;;;;;;;;;;5075601;28;20277;-41
2022/10/12 04:40:51;;;;;;;40.63;25.02;;;;;;;;;;5075315;28;20444;-40
2022/10/12 04:43:16;;;;;;;38.63;23.75;;;;;;;;;;5075847;28;20020;-41
2022/10/12 04:45:42;;;;;;;42.53;24.53;;;;;;;;;;5075559;28;20048;-42
2022/10/12 04:48:07;;;;;;;42.17;25.13;;;;;;;;;;5075196;28;20245;-41
2022/10/12 04:50:32;;;;;;;47.22;26.77;;;;;;;;;;5075407;28;20023;-41
2022/10/12 04:52:58;;;;;;;41.95;25.02;;;;;;;;;;5074948;28;20194;-42
2022/10/12 04:55:23;;;;;;;48.85;29.10;;;;;;;;;;5075095;28;20058;-40
2022/10/12 04:57:49;;;;;;;47.20;28.27;;;;;;;;;;5075404;28;20029;-42
2022/10/12 05:00:14;;;;;;;51.30;32.20;;;;;;;;;;5075158;28;20253;-39
2022/10/12 05:02:39;;;;;;;62.40;34.70;;;;;;;;;;5073774;28;20090;-42
2022/10/12 05:05:05;;;;;;;46.83;27.60;;;;;;;;;;5077236;28;20016;-42
2022/10/12 05:07:30;;;;;;;38.33;24.77;;;;;;;;;;5074918;28;20230;-40
2022/10/12 05:09:55;;;;;;;53.95;31.05;;;;;;;;;;5090207;28;20103;-40
2022/10/12 05:12:21;;;;;;;48.58;28.63;;;;;;;;;;5094699;28;20095;-42
2022/10/12 05:14:46;;;;;;;47.88;30.27;;;;;;;;;;5095080;28;20023;-42
2022/10/12 05:17:11;;;;;;;50.10;30.35;;;;;;;;;;5094925;28;20065;-40
2022/10/12 05:19:37;;;;;;;47.40;29.00;;;;;;;;;;5094685;28;20077;-40
2022/10/12 05:22:02;;;;;;;39.92;24.92;;;;;;;;;;5094734;28;20074;-40
2022/10/12 05:24:27;;;;;;;47.60;27.85;;;;;;;;;;5094655;28;20071;-41
2022/10/12 05:26:53;;;;;;;47.03;25.85;;;;;;;;;;5093261;28;20077;-40
2022/10/12 05:29:18;;;;;;;41.70;23.95;;;;;;;;;;5094750;28;20379;-41
2022/10/12 05:31:43;;;;;;;62.47;29.90;;;;;;;;;;5094586;28;20047;-39
2022/10/12 05:34:09;;;;;;;53.20;31.08;;;;;;;;;;5082048;28;20460;-38
2022/10/12 05:36:34;;;;;;;42.75;27.20;;;;;;;;;;5074283;28;20021;-38
2022/10/12 05:38:59;;;;;;;49.10;28.92;;;;;;;;;;5074012;28;20079;-43
2022/10/12 05:41:25;;;;;;;53.65;28.27;;;;;;;;;;5073905;28;20020;-40
2022/10/12 05:43:52;;;;;;;45.50;25.55;;;;;;;;;;5088450;28;20020;-43
2022/10/12 05:46:17;;;;;;;46.40;26.17;;;;;;;;;;5087147;28;20039;-43
2022/10/12 05:48:42;;;;;;;48.33;24.73;;;;;;;;;;5080887;28;20020;-42
2022/10/12 05:51:08;;;;;;;37.92;22.67;;;;;;;;;;5076087;28;20086;-40
2022/10/12 05:53:33;;;;;;;38.17;22.75;;;;;;;;;;5082996;28;20052;-41
2022/10/12 05:55:59;;;;;;;37.70;23.20;;;;;;;;;;5082378;28;20020;-41
2022/10/12 05:58:26;;;;;;;41.35;23.58;;;;;;;;;;5078915;28;20040;-39
2022/10/12 06:00:52;;;;;;;42.25;25.80;;;;;;;;;;5080293;28;20050;-42
2022/10/12 06:03:17;;;;;;;42.13;25.70;;;;;;;;;;5084712;28;20024;-40
2022/10/12 06:05:43;;;;;;;43.92;25.55;;;;;;;;;;5079408;28;20031;-45
2022/10/12 06:08:08;;;;;;;41.20;25.60;;;;;;;;;;5075550;28;20021;-43
2022/10/12 06:10:42;;;;;;;46.60;28.58;;;;;;;;;;5083044;28;20042;-43
2022/10/12 06:13:07;;;;;;;55.08;32.90;;;;;;;;;;5076623;28;20475;-43
2022/10/12 06:15:34;;;;;;;62.97;38.00;;;;;;;;;;5082861;28;20100;-41
2022/10/12 06:17:59;;;;;;;63.67;37.63;;;;;;;;;;5073359;28;20040;-42
2022/10/12 06:20:24;;;;;;;66.85;37.25;;;;;;;;;;5074009;28;20029;-44
2022/10/12 06:22:50;;;;;;;55.85;34.50;;;;;;;;;;5070725;28;20035;-40
2022/10/12 06:25:15;;;;;;;50.70;31.25;;;;;;;;;;5079182;28;20024;-41
2022/10/12 06:27:43;;;;;;;48.92;28.05;;;;;;;;;;5084500;28;20021;-43
2022/10/12 06:30:08;;;;;;;43.55;24.55;;;;;;;;;;5072758;28;20499;-42
2022/10/12 06:32:33;;;;;;;36.42;21.88;;;;;;;;;;5081666;28;20021;-42
2022/10/12 06:34:59;;;;;;;32.95;19.95;;;;;;;;;;5091381;28;20020;-40
2022/10/12 06:37:24;;;;;;;34.47;18.90;;;;;;;;;;5092259;28;20099;-42
2022/10/12 06:39:49;;;;;;;34.60;18.63;;;;;;;;;;5081362;28;20039;-41
2022/10/12 06:42:15;;;;;;;36.40;19.52;;;;;;;;;;5083080;28;20028;-43
2022/10/12 06:44:40;;;;;;;26.80;17.13;;;;;;;;;;5082459;28;20027;-45
2022/10/12 06:47:05;;;;;;;23.52;16.08;;;;;;;;;;5081582;28;20137;-43
2022/10/12 06:49:31;;;;;;;31.63;17.45;;;;;;;;;;5075342;28;20059;-42
2022/10/12 06:51:56;;;;;;;25.58;16.15;;;;;;;;;;5077593;28;20028;-43
2022/10/12 06:54:21;;;;;;;26.83;17.13;;;;;;;;;;5075237;28;20036;-41
2022/10/12 06:56:47;;;;;;;23.42;15.68;;;;;;;;;;5072419;28;20020;-44
2022/10/12 06:59:12;;;;;;;27.95;16.15;;;;;;;;;;5071657;28;20028;-43
2022/10/12 07:01:38;;;;;;;28.98;16.92;;;;;;;;;;5074028;28;20029;-40
2022/10/12 07:04:03;;;;;;;25.98;16.45;;;;;;;;;;5077878;28;20479;-43
2022/10/12 07:06:28;;;;;;;29.45;16.33;;;;;;;;;;5067211;28;20145;-42
2022/10/12 07:08:54;;;;;;;26.55;16.20;;;;;;;;;;5091361;28;20038;-43
2022/10/12 07:11:19;;;;;;;30.80;14.57;;;;;;;;;;5077262;28;20028;-41
2022/10/12 07:13:45;;;;;;;22.08;14.13;;;;;;;;;;5072013;28;20044;-41
2022/10/12 07:16:10;;;;;;;26.60;14.68;;;;;;;;;;5081247;28;20024;-41
2022/10/12 07:18:35;;;;;;;22.30;14.20;;;;;;;;;;5091927;28;20035;-42
2022/10/12 07:21:01;;;;;;;24.38;14.00;;;;;;;;;;5092084;28;20012;-40
2022/10/12 07:23:27;;;;;;;25.88;13.90;;;;;;;;;;5092264;28;20158;-39
2022/10/12 07:25:53;;;;;;;22.98;12.65;;;;;;;;;;5084999;28;20040;-44
2022/10/12 07:28:18;;;;;;;23.42;13.18;;;;;;;;;;5069455;28;20017;-43
2022/10/12 07:30:43;;;;;;;20.17;12.35;;;;;;;;;;5088009;28;20024;-44
2022/10/12 07:33:09;;;;;;;19.50;12.57;;;;;;;;;;5090378;28;20125;-42
2022/10/12 07:35:34;;;;;;;22.23;12.73;;;;;;;;;;5089339;28;20053;-38
2022/10/12 07:37:59;;;;;;;21.38;12.68;;;;;;;;;;5089374;28;20036;-45
2022/10/12 07:40:25;;;;;;;18.45;11.15;;;;;;;;;;5089912;28;20095;-41
2022/10/12 07:42:50;;;;;;;24.20;13.70;;;;;;;;;;5091175;28;20043;-42
2022/10/12 07:45:16;;;;;;;17.65;13.25;;;;;;;;;;5091324;28;20020;-38
2022/10/12 07:47:41;;;;;;;26.25;12.18;;;;;;;;;;5071389;28;20066;-37
2022/10/12 07:50:08;;;;;;;23.25;13.20;;;;;;;;;;5072591;28;20024;-41
2022/10/12 07:52:34;;;;;;;22.85;12.38;;;;;;;;;;5081175;28;20028;-39
2022/10/12 07:54:59;;;;;;;18.65;11.43;;;;;;;;;;5087183;28;20217;-39
2022/10/12 07:57:24;;;;;;;19.85;11.65;;;;;;;;;;5083613;28;20036;-38
2022/10/12 07:59:49;;;;;;;21.88;11.05;;;;;;;;;;5084211;28;20042;-41
2022/10/12 08:02:15;;;;;;;19.15;11.25;;;;;;;;;;5087187;28;20020;-40
2022/10/12 08:04:40;;;;;;;16.65;10.30;;;;;;;;;;5084393;28;20045;-37
2022/10/12 08:07:05;;;;;;;21.13;10.05;;;;;;;;;;5078852;28;20028;-38
2022/10/12 08:09:31;;;;;;;18.80;9.68;;;;;;;;;;5081403;28;20046;-37
2022/10/12 08:11:56;;;;;;;30.57;11.83;;;;;;;;;;5083894;28;20051;-36
2022/10/12 08:14:21;;;;;;;20.73;9.40;;;;;;;;;;5089398;28;20265;-39
2022/10/12 08:16:47;;;;;;;15.52;9.88;;;;;;;;;;5091655;28;20016;-38
2022/10/12 08:19:12;;;;;;;16.83;10.43;;;;;;;;;;5095285;28;20032;-34
2022/10/12 08:21:38;;;;;;;17.65;10.18;;;;;;;;;;5085731;28;20028;-44
2022/10/12 08:24:04;;;;;;;18.17;10.23;;;;;;;;;;5076015;28;20048;-41
2022/10/12 08:26:29;;;;;;;19.05;10.13;;;;;;;;;;5080038;28;20123;-43
2022/10/12 08:28:54;;;;;;;16.27;9.20;;;;;;;;;;5084185;28;20432;-43
2022/10/12 08:31:19;;;;;;;14.35;9.40;;;;;;;;;;5079802;28;20028;-39
2022/10/12 08:33:45;;;;;;;17.07;8.80;;;;;;;;;;5083743;28;20026;-44
2022/10/12 08:36:10;;;;;;;15.07;9.25;;;;;;;;;;5088855;28;20639;-42
2022/10/12 08:38:38;;;;;;;19.67;9.70;;;;;;;;;;5080955;28;20059;-41
2022/10/12 08:41:36;;;;;;;14.60;9.82;;;;;;;;;;5084925;28;20032;-41
2022/10/12 08:44:07;;;;;;;18.25;10.15;;;;;;;;;;5012780;28;20043;-44
2022/10/12 08:46:33;;;;;;;16.33;9.35;;;;;;;;;;5074235;28;20055;-44
2022/10/12 08:49:09;;;;;;;13.38;9.18;;;;;;;;;;5079214;28;20020;-39
2022/10/12 08:51:39;;;;;;;13.70;9.07;;;;;;;;;;5094637;28;20035;-43
2022/10/12 08:54:11;;;;;;;13.43;9.05;;;;;;;;;;5093192;28;20080;-40
2022/10/12 08:56:39;;;;;;;15.57;8.75;;;;;;;;;;5067754;28;20068;-43
2022/10/12 08:59:08;;;;;;;14.98;9.27;;;;;;;;;;5079293;28;20085;-43
2022/10/12 09:01:37;;;;;;;16.75;9.18;;;;;;;;;;5081955;28;20017;-39
2022/10/12 09:04:11;;;;;;;20.63;8.45;;;;;;;;;;5079069;28;20396;-42
2022/10/12 09:06:48;;;;;;;17.58;9.13;;;;;;;;;;5086886;28;20468;-41
2022/10/12 09:09:31;;;;;;;16.60;9.63;;;;;;;;;;5081622;28;20443;-42
2022/10/12 09:11:56;;;;;;;14.20;8.85;;;;;;;;;;5074212;28;20104;-41
2022/10/12 09:14:25;;;;;;;17.40;9.00;;;;;;;;;;5074429;28;20060;-44
2022/10/12 09:16:50;;;;;;;19.25;9.55;;;;;;;;;;5073505;28;20032;-40
2022/10/12 09:19:16;;;;;;;11.52;7.63;;;;;;;;;;5074712;28;20081;-38
2022/10/12 09:21:42;;;;;;;21.20;8.50;;;;;;;;;;5080091;28;20540;-41
2022/10/12 09:24:12;;;;;;;19.70;9.10;;;;;;;;;;5080334;28;20250;-43
2022/10/12 09:26:40;;;;;;;15.52;8.05;;;;;;;;;;5092810;28;20027;-44
2022/10/12 09:29:22;;;;;;;13.10;7.97;;;;;;;;;;5083885;28;20094;-44
2022/10/12 09:32:01;;;;;;;18.73;8.57;;;;;;;;;;5082088;28;20028;-43
2022/10/12 09:34:26;;;;;;;10.25;7.68;;;;;;;;;;5082665;28;20016;-40
2022/10/12 09:36:54;;;;;;;12.93;7.90;;;;;;;;;;5073633;28;20032;-44
2022/10/12 09:39:21;;;;;;;11.40;6.15;;;;;;;;;;5075501;28;20036;-43
2022/10/12 09:41:47;;;;;;;18.98;7.00;;;;;;;;;;5091908;28;20024;-44
2022/10/12 09:44:23;;;;;;;16.80;7.85;;;;;;;;;;5093994;28;20112;-42
2022/10/12 09:46:52;;;;;;;12.57;6.32;;;;;;;;;;5094051;28;20028;-40
2022/10/12 09:49:18;;;;;;;13.38;7.30;;;;;;;;;;5091531;28;20463;-41
2022/10/12 09:51:43;;;;;;;12.05;6.53;;;;;;;;;;5083370;28;20029;-38
2022/10/12 09:54:15;;;;;;;16.63;6.45;;;;;;;;;;5073236;28;20509;-43
2022/10/12 09:56:43;;;;;;;21.05;7.07;;;;;;;;;;5072758;28;20028;-41
2022/10/12 09:59:28;;;;;;;12.85;6.55;;;;;;;;;;5072866;28;20036;-41
2022/10/12 10:02:08;;;;;;;11.95;6.70;;;;;;;;;;5082138;28;20028;-42
2022/10/12 10:04:33;;;;;;;13.25;5.93;;;;;;;;;;5073412;28;20111;-42
2022/10/12 10:07:19;;;;;;;16.38;5.95;;;;;;;;;;5080576;28;20142;-39
2022/10/12 10:09:45;;;;;;;12.70;6.30;;;;;;;;;;5060006;28;20048;-43
2022/10/12 10:12:25;;;;;;;12.55;6.03;;;;;;;;;;5073717;28;20468;-42
2022/10/12 10:14:52;;;;;;;8.63;5.97;;;;;;;;;;5078112;28;20126;-44
2022/10/12 10:17:25;;;;;;;12.40;6.03;;;;;;;;;;5071584;28;20036;-43
2022/10/12 10:19:51;;;;;;;14.75;6.07;;;;;;;;;;5081268;28;20024;-42
2022/10/12 10:22:16;;;;;;;13.38;6.43;;;;;;;;;;5093348;28;20496;-42
2022/10/12 10:24:42;;;;;;;16.23;7.22;;;;;;;;;;5085629;28;20020;-38
2022/10/12 10:27:25;;;;;;;15.05;6.35;;;;;;;;;;5075943;28;20029;-45
2022/10/12 10:29:50;;;;;;;13.50;6.00;;;;;;;;;;5070661;28;20025;-41
2022/10/12 10:32:25;;;;;;;10.75;5.80;;;;;;;;;;5081485;28;20387;-41
2022/10/12 10:35:04;;;;;;;10.32;5.45;;;;;;;;;;5078799;28;20028;-44
2022/10/12 10:37:30;;;;;;;9.95;5.82;;;;;;;;;;5070533;28;20107;-42
2022/10/12 10:39:56;;;;;;;14.23;6.10;;;;;;;;;;5070660;28;20055;-41
2022/10/12 10:42:24;;;;;;;14.20;6.10;;;;;;;;;;5071259;28;20024;-44
2022/10/12 10:44:51;;;;;;;8.68;5.47;;;;;;;;;;5073737;28;21335;-42
2022/10/12 10:47:16;;;;;;;11.20;6.18;;;;;;;;;;5091020;28;20028;-40
2022/10/12 10:49:44;;;;;;;11.02;5.65;;;;;;;;;;5092689;28;20073;-40
2022/10/12 10:52:22;;;;;;;16.30;7.47;;;;;;;;;;5092970;28;20020;-39
2022/10/12 10:54:48;;;;;;;10.02;6.00;;;;;;;;;;5092406;28;20055;-42
2022/10/12 10:57:20;;;;;;;18.15;6.70;;;;;;;;;;5075160;28;20427;-40
2022/10/12 10:59:48;;;;;;;12.70;5.40;;;;;;;;;;5072177;28;20040;-40
2022/10/12 11:02:18;;;;;;;11.43;5.70;;;;;;;;;;5090483;28;20069;-44
2022/10/12 11:04:46;;;;;;;8.52;5.63;;;;;;;;;;5092732;28;20020;-40
2022/10/12 11:07:15;;;;;;;12.25;5.72;;;;;;;;;;5086936;28;20352;-41
2022/10/12 11:09:43;;;;;;;40.53;9.05;;;;;;;;;;5080134;28;20086;-41
2022/10/12 11:12:12;;;;;;;13.68;7.18;;;;;;;;;;5072692;28;20029;-42
2022/10/12 11:14:40;;;;;;;8.50;5.18;;;;;;;;;;5075376;28;20132;-42
2022/10/12 11:17:11;;;;;;;15.40;6.03;;;;;;;;;;5074636;28;20460;-40
2022/10/12 11:19:41;;;;;;;9.55;5.50;;;;;;;;;;5079871;28;20028;-43
2022/10/12 11:22:14;;;;;;;8.95;5.45;;;;;;;;;;5078124;28;20065;-41
2022/10/12 11:24:46;;;;;;;10.48;5.43;;;;;;;;;;5072775;28;20035;-41
2022/10/12 11:27:15;;;;;;;9.13;4.90;;;;;;;;;;5090994;28;20031;-45
2022/10/12 11:29:41;;;;;;;9.85;5.60;;;;;;;;;;5061426;28;20471;-41
2022/10/12 11:32:13;;;;;;;10.43;4.68;;;;;;;;;;5092262;28;20030;-37
2022/10/12 11:34:50;;;;;;;10.82;5.50;;;;;;;;;;5091995;28;20016;-42
2022/10/12 11:37:21;;;;;;;14.68;5.43;;;;;;;;;;5091827;28;20497;-38
2022/10/12 11:39:49;;;;;;;11.32;5.00;;;;;;;;;;5086480;28;20066;-40
2022/10/12 11:42:18;;;;;;;6.88;4.57;;;;;;;;;;5072040;28;20404;-39
2022/10/12 11:44:45;;;;;;;11.05;5.63;;;;;;;;;;5071823;28;20499;-42
2022/10/12 11:47:10;;;;;;;11.07;5.75;;;;;;;;;;5071401;28;20016;-44
2022/10/12 11:49:54;;;;;;;10.82;5.53;;;;;;;;;;5074633;28;20035;-39
2022/10/12 11:52:20;;;;;;;13.15;5.60;;;;;;;;;;5085672;28;20107;-41
2022/10/12 11:54:45;;;;;;;10.90;5.00;;;;;;;;;;5073623;28;20067;-44
2022/10/12 11:57:12;;;;;;;9.23;5.20;;;;;;;;;;5087832;28;20028;-42
2022/10/12 11:59:38;;;;;;;9.65;6.30;;;;;;;;;;5090664;28;20067;-39
2022/10/12 12:02:22;;;;;;;9.20;5.17;;;;;;;;;;5075167;28;20751;-42
2022/10/12 12:04:47;;;;;;;9.88;6.72;;;;;;;;;;5071800;28;20249;-39
2022/10/12 12:07:22;;;;;;;8.35;5.10;;;;;;;;;;5071266;28;20035;-44
2022/10/12 12:09:47;;;;;;;10.27;5.40;;;;;;;;;;5082324;28;20026;-42
2022/10/12 12:12:24;;;;;;;11.23;5.35;;;;;;;;;;5091956;28;20024;-39
2022/10/12 12:14:52;;;;;;;13.48;5.50;;;;;;;;;;5092032;28;20097;-39
2022/10/12 12:17:17;;;;;;;10.75;5.75;;;;;;;;;;5089772;28;20025;-41
2022/10/12 12:19:43;;;;;;;9.27;4.75;;;;;;;;;;5080701;28;20391;-38
2022/10/12 12:22:25;;;;;;;10.13;5.07;;;;;;;;;;5071594;28;20028;-38
2022/10/12 12:24:54;;;;;;;8.25;4.85;;;;;;;;;;5073549;28;20379;-43
2022/10/12 12:27:27;;;;;;;15.10;5.47;;;;;;;;;;5082399;28;20028;-38
2022/10/12 12:29:53;;;;;;;11.05;5.15;;;;;;;;;;5071367;28;20315;-42
2022/10/12 12:32:19;;;;;;;14.88;5.65;;;;;;;;;;5079317;28;20025;-41
2022/10/12 12:34:54;;;;;;;9.43;5.05;;;;;;;;;;5071524;28;20383;-44
2022/10/12 12:37:21;;;;;;;11.85;5.15;;;;;;;;;;5075175;28;20027;-42
2022/10/12 12:39:51;;;;;;;10.55;5.60;;;;;;;;;;5094696;28;20040;-41
2022/10/12 12:42:20;;;;;;;8.98;4.57;;;;;;;;;;5089574;28;20029;-42
2022/10/12 12:44:45;;;;;;;;;;;;;;;;;;5079623;28;20387;-40
2022/10/12 12:47:11;;;;;;;12.07;5.43;;;;;;;;;;5076689;28;19915;-42
2022/10/12 12:49:36;;;;;;;8.40;4.63;;;;;;;;;;5084807;28;20031;-40
2022/10/12 12:52:02;;;;;;;7.63;4.50;;;;;;;;;;5074348;28;20023;-39
2022/10/12 12:54:28;;;;;;;7.78;4.68;;;;;;;;;;5074593;28;20056;-43
2022/10/12 12:57:05;;;;;;;8.02;4.07;;;;;;;;;;5082390;28;20016;-41
2022/10/12 12:59:57;;;;;;;11.10;5.13;;;;;;;;;;5094282;28;20027;-40
2022/10/12 13:02:41;;;;;;;7.80;4.93;;;;;;;;;;5043169;28;20035;-39
2022/10/12 13:05:20;;;;;;;9.30;4.40;;;;;;;;;;5075620;28;20037;-40
2022/10/12 13:07:52;;;;;;;10.57;4.70;;;;;;;;;;5080338;28;20142;-43
2022/10/12 13:10:21;;;;;;;12.73;5.43;;;;;;;;;;5079843;28;20035;-39
2022/10/12 13:12:56;;;;;;;7.82;4.93;;;;;;;;;;5081691;28;20016;-42
2022/10/12 13:15:24;;;;;;;9.07;5.43;;;;;;;;;;5075687;28;20032;-40
2022/10/12 13:18:08;;;;;;;9.23;5.10;;;;;;;;;;5093983;28;20128;-41
2022/10/12 13:20:36;;;;;;;5.82;4.65;;;;;;;;;;5086506;28;20020;-41
2022/10/12 13:23:04;;;;;;;7.75;5.45;;;;;;;;;;5087673;28;20033;-41
2022/10/12 13:25:39;;;;;;;13.80;4.68;;;;;;;;;;5085291;28;20052;-42
2022/10/12 13:28:08;;;;;;;9.32;4.90;;;;;;;;;;5073690;28;20045;-38
2022/10/12 13:30:39;;;;;;;17.33;5.03;;;;;;;;;;5074190;28;20013;-41
2022/10/12 13:33:08;;;;;;;7.72;5.10;;;;;;;;;;5092559;28;20028;-43
2022/10/12 13:35:52;;;;;;;7.72;4.38;;;;;;;;;;5094183;28;20020;-43
2022/10/12 13:38:20;;;;;;;9.48;6.03;;;;;;;;;;5087783;28;20437;-38
2022/10/12 13:40:52;;;;;;;11.95;4.75;;;;;;;;;;5073865;28;20478;-42
2022/10/12 13:43:32;;;;;;;10.68;5.55;;;;;;;;;;5073564;28;20379;-37
2022/10/12 13:45:58;;;;;;;13.15;4.97;;;;;;;;;;5074008;28;20464;-39
2022/10/12 13:48:23;;;;;;;12.63;5.63;;;;;;;;;;5072045;28;20031;-38
2022/10/12 13:50:53;;;;;;;12.55;5.50;;;;;;;;;;5074029;28;20029;-39
2022/10/12 13:53:18;;;;;;;;;;;;;;;;;;5074183;28;20059;-39
2022/10/12 13:55:49;;;;;;;12.57;6.03;;;;;;;;;;5079409;28;19908;-40
2022/10/12 13:58:26;;;;;;;19.23;5.82;;;;;;;;;;5084898;28;20157;-42
2022/10/12 14:00:52;;;;;;;11.18;5.43;;;;;;;;;;5089531;28;20471;-42
2022/10/12 14:03:22;;;;;;;10.90;5.57;;;;;;;;;;5075866;28;20031;-39
2022/10/12 14:05:47;;;;;;;16.08;5.70;;;;;;;;;;5073653;28;20379;-38
2022/10/12 14:08:20;;;;;;;9.47;4.80;;;;;;;;;;5072742;28;20103;-42
2022/10/12 14:10:48;;;;;;;9.23;5.28;;;;;;;;;;5073177;28;20348;-39
2022/10/12 14:13:14;;;;;;;10.82;5.63;;;;;;;;;;5087671;28;20028;-41
2022/10/12 14:15:40;;;;;;;11.13;5.55;;;;;;;;;;5083608;28;20754;-44
2022/10/12 14:18:25;;;;;;;10.77;4.95;;;;;;;;;;5080620;28;20016;-42
2022/10/12 14:20:50;;;;;;;6.95;4.50;;;;;;;;;;5082385;28;20027;-42
2022/10/12 14:23:20;;;;;;;10.35;5.57;;;;;;;;;;5076366;28;20511;-43
2022/10/12 14:25:54;;;;;;;12.45;5.35;;;;;;;;;;5074459;28;20061;-38
2022/10/12 14:28:31;;;;;;;9.85;5.18;;;;;;;;;;5075129;28;20068;-41
2022/10/12 14:30:56;;;;;;;11.73;4.57;;;;;;;;;;5072925;28;20051;-43
2022/10/12 14:33:22;;;;;;;7.40;4.47;;;;;;;;;;5073250;28;20507;-41